N3974X / N3974X 7700 Squawk Report (24th of February, 2019)

Time Lat Lon Altitude Heading Speed Vertical Rate
2019-02-24 02:36:42 GMT 61.214676 -149.842529 400 0 0 0
2019-02-24 02:36:37 GMT 61.214703 -149.842529 100 0 0 0
2019-02-24 02:36:26 GMT 61.214722 -149.842529 0 0 0 0
2019-02-24 02:36:16 GMT 61.214584 -149.842819 0 0 0 0
2019-02-24 02:36:04 GMT 61.214539 -149.842926 0 0 0 0
2019-02-24 02:35:54 GMT 61.214493 -149.842926 0 0 0 0
2019-02-24 02:35:44 GMT 61.214539 -149.842926 0 0 0 0
2019-02-24 02:35:32 GMT 61.214611 -149.842834 0 0 0 0
2019-02-24 02:35:23 GMT 61.214584 -149.842926 0 0 0 0
We lost coverage of the aircraft here for a total of 10 minutes
2019-02-24 02:25:27 GMT 61.214516 -149.842834 -400 0 0 0
2019-02-24 02:25:15 GMT 61.214539 -149.842621 -400 270 2 0
2019-02-24 02:25:06 GMT 61.214539 -149.842438 -400 270 1 0
2019-02-24 02:24:54 GMT 61.214561 -149.842331 -400 252 3 -64
2019-02-24 02:24:43 GMT 61.214760 -149.842178 0 174 6 0
2019-02-24 02:24:32 GMT 61.215042 -149.842331 0 143 6 0
2019-02-24 02:24:20 GMT 61.215168 -149.842941 0 92 8 0
2019-02-24 02:24:11 GMT 61.215179 -149.843628 0 90 10 0
2019-02-24 02:24:00 GMT 61.215191 -149.844772 0 90 11 0
2019-02-24 02:23:50 GMT 61.215202 -149.845688 0 90 11 0
2019-02-24 02:23:41 GMT 61.215191 -149.846725 0 90 10 0
2019-02-24 02:23:30 GMT 61.215191 -149.847641 0 90 10 0
2019-02-24 02:23:19 GMT 61.215191 -149.848541 0 87 9 0
2019-02-24 02:23:09 GMT 61.215225 -149.849289 0 120 7 0
2019-02-24 02:22:58 GMT 61.215485 -149.849579 0 174 6 0
2019-02-24 02:22:45 GMT 61.215797 -149.849472 0 225 8 0
2019-02-24 02:22:37 GMT 61.215900 -149.848679 0 270 17 0
2019-02-24 02:22:25 GMT 61.215866 -149.846252 -300 270 37 0
2019-02-24 02:22:15 GMT 61.215866 -149.838364 -400 270 58 -64
2019-02-24 02:22:05 GMT 61.215866 -149.835922 -300 270 73 -128
2019-02-24 02:22:01 GMT 61.215866 -149.833267 -300 270 83 -576
2019-02-24 02:21:52 GMT 61.215866 -149.826355 -200 270 83 -576
2019-02-24 02:21:42 GMT 61.215866 -149.817810 -200 270 82 -512
2019-02-24 02:21:31 GMT 61.215820 -149.809464 -100 271 82 -320
2019-02-24 02:21:19 GMT 61.215775 -149.800735 0 269 86 -256
2019-02-24 02:21:10 GMT 61.215820 -149.791977 100 270 88 -512
2019-02-24 02:20:59 GMT 61.215775 -149.782303 100 271 99 -320
2019-02-24 02:20:50 GMT 61.215775 -149.774261 200 271 102 -320
2019-02-24 02:20:38 GMT 61.215633 -149.761658 300 272 102 -256
2019-02-24 02:20:27 GMT 61.215633 -149.751282 300 270 102 -192
2019-02-24 02:20:16 GMT 61.215683 -149.740616 400 268 101 -320
2019-02-24 02:20:08 GMT 61.215820 -149.732376 400 270 100 -192
2019-02-24 02:20:04 GMT 61.215820 -149.730011 400 270 100 -128
2019-02-24 02:19:54 GMT 61.215866 -149.719131 500 268 101 -192
2019-02-24 02:19:44 GMT 61.216427 -149.709167 500 258 101 -256
2019-02-24 02:19:36 GMT 61.217468 -149.701965 500 250 101 -256
2019-02-24 02:19:33 GMT 61.217926 -149.699615 500 247 101 -320
2019-02-24 02:19:24 GMT 61.219589 -149.692795 600 239 101 -192
2019-02-24 02:19:19 GMT 61.221081 -149.688217 600 237 100 -256
2019-02-24 02:19:12 GMT 61.223236 -149.682632 600 228 101 -128
2019-02-24 02:19:04 GMT 61.225800 -149.676849 600 227 103 -128
2019-02-24 02:19:00 GMT 61.226761 -149.674683 700 226 104 -64
2019-02-24 02:18:53 GMT 61.229416 -149.669296 700 223 109 -64
2019-02-24 02:18:49 GMT 61.230652 -149.667145 700 221 109 -256
2019-02-24 02:18:43 GMT 61.233536 -149.662140 700 219 108 -256
2019-02-24 02:18:40 GMT 61.234863 -149.659882 700 218 107 -192
2019-02-24 02:18:32 GMT 61.237747 -149.655350 700 217 107 -64
2019-02-24 02:18:29 GMT 61.239098 -149.653214 700 216 108 -64
2019-02-24 02:18:21 GMT 61.242096 -149.648895 800 214 108 -192
2019-02-24 02:18:17 GMT 61.243565 -149.646912 800 214 107 -192
2019-02-24 02:18:09 GMT 61.246674 -149.642715 800 213 108 -192
2019-02-24 02:18:06 GMT 61.247990 -149.640915 800 213 108 -320
2019-02-24 02:18:00 GMT 61.251060 -149.636734 900 215 106 -448
2019-02-24 02:17:57 GMT 61.252304 -149.634964 900 215 104 -448
2019-02-24 02:17:49 GMT 61.255142 -149.630844 900 215 103 -64
2019-02-24 02:17:46 GMT 61.256470 -149.628891 900 216 104 0
2019-02-24 02:17:39 GMT 61.259399 -149.624573 900 217 105 -192
2019-02-24 02:17:34 GMT 61.260792 -149.622391 900 217 106 -128
2019-02-24 02:17:28 GMT 61.263657 -149.618195 1,000 215 107 -192
2019-02-24 02:17:23 GMT 61.265259 -149.615982 1,000 214 108 -192
2019-02-24 02:17:17 GMT 61.268097 -149.612106 1,000 214 109 0
2019-02-24 02:17:14 GMT 61.269608 -149.610046 1,000 215 112 320
2019-02-24 02:17:07 GMT 61.272709 -149.605606 900 215 119 -128
2019-02-24 02:17:03 GMT 61.274323 -149.603378 1,000 214 120 -448
2019-02-24 02:16:55 GMT 61.277664 -149.598770 1,000 214 121 -512
2019-02-24 02:16:50 GMT 61.280273 -149.595245 1,100 213 120 -576
2019-02-24 02:16:45 GMT 61.282669 -149.592178 1,100 213 121 -384
2019-02-24 02:16:42 GMT 61.284576 -149.589645 1,100 215 123 -448
2019-02-24 02:16:35 GMT 61.287735 -149.585037 1,200 217 124 -448
2019-02-24 02:16:31 GMT 61.289703 -149.582001 1,200 217 124 -448
2019-02-24 02:16:21 GMT 61.293701 -149.575699 1,300 217 125 -448
2019-02-24 02:16:17 GMT 61.295471 -149.572952 1,300 217 125 -640
2019-02-24 02:16:13 GMT 61.297798 -149.569504 1,400 215 124 -512
2019-02-24 02:16:10 GMT 61.299408 -149.567276 1,400 212 124 -320
2019-02-24 02:16:03 GMT 61.302795 -149.563354 1,400 205 127 0
2019-02-24 02:15:59 GMT 61.304947 -149.561493 1,400 202 127 0
2019-02-24 02:15:51 GMT 61.308784 -149.558823 1,400 197 126 -256
2019-02-24 02:15:48 GMT 61.310989 -149.557571 1,500 195 124 -192
2019-02-24 02:15:40 GMT 61.315933 -149.555222 1,500 193 124 -64
2019-02-24 02:15:37 GMT 61.317120 -149.554642 1,500 191 124 64
2019-02-24 02:15:30 GMT 61.320934 -149.553329 1,500 189 125 0
2019-02-24 02:15:26 GMT 61.323532 -149.552567 1,500 187 124 -128
2019-02-24 02:15:19 GMT 61.326847 -149.551590 1,500 195 123 -64
2019-02-24 02:15:16 GMT 61.329174 -149.550674 1,500 192 123 -64
2019-02-24 02:15:08 GMT 61.333694 -149.548447 1,500 196 123 -64
2019-02-24 02:15:04 GMT 61.335506 -149.547318 1,500 198 122 -128
2019-02-24 02:14:57 GMT 61.339279 -149.544617 1,500 201 122 64
2019-02-24 02:14:54 GMT 61.341431 -149.542953 1,500 202 122 0
2019-02-24 02:14:48 GMT 61.344498 -149.540314 1,500 205 123 -128
2019-02-24 02:14:44 GMT 61.346512 -149.538345 1,500 206 122 -128
2019-02-24 02:14:37 GMT 61.349937 -149.534912 1,500 207 122 64
2019-02-24 02:14:33 GMT 61.351822 -149.532944 1,500 208 122 128
2019-02-24 02:14:26 GMT 61.355301 -149.529022 1,500 208 123 0
2019-02-24 02:14:21 GMT 61.358276 -149.525787 1,500 208 122 128
2019-02-24 02:14:16 GMT 61.360783 -149.523117 1,500 207 123 128
2019-02-24 02:14:12 GMT 61.362488 -149.521378 1,500 207 124 64
2019-02-24 02:14:04 GMT 61.366138 -149.517517 1,500 207 124 64
2019-02-24 02:14:00 GMT 61.368279 -149.515274 1,500 206 125 192
2019-02-24 02:13:53 GMT 61.371872 -149.511856 1,400 204 127 64
2019-02-24 02:13:50 GMT 61.374481 -149.509598 1,400 202 127 64
2019-02-24 02:13:43 GMT 61.378235 -149.506668 1,400 200 128 64
2019-02-24 02:13:39 GMT 61.381638 -149.504593 1,400 194 131 128
2019-02-24 02:13:32 GMT 61.384106 -149.503479 1,400 189 134 320
2019-02-24 02:13:24 GMT 61.389771 -149.502350 1,400 180 136 -576
2019-02-24 02:13:13 GMT 61.396088 -149.504013 1,500 164 128 -512
2019-02-24 02:13:02 GMT 61.403564 -149.510605 1,600 150 124 -192
2019-02-24 02:12:52 GMT 61.407196 -149.515076 1,600 148 123 -256
2019-02-24 02:12:49 GMT 61.408173 -149.516403 1,600 147 122 -192
2019-02-24 02:12:42 GMT 61.411972 -149.521469 1,600 146 121 64
2019-02-24 02:12:39 GMT 61.413208 -149.523148 1,600 146 121 64
2019-02-24 02:12:31 GMT 61.417236 -149.528641 1,600 150 120 -192
2019-02-24 02:12:28 GMT 61.418137 -149.529617 1,600 151 119 -192
2019-02-24 02:12:20 GMT 61.422501 -149.533737 1,600 160 116 0
2019-02-24 02:12:08 GMT 61.428051 -149.535522 1,600 185 118 320
2019-02-24 02:12:05 GMT 61.430099 -149.534912 1,600 192 118 64
2019-02-24 02:11:58 GMT 61.433544 -149.532669 1,600 205 119 320
2019-02-24 02:11:55 GMT 61.434906 -149.531281 1,600 211 118 640
2019-02-24 02:11:48 GMT 61.438339 -149.524948 1,400 235 118 1408
2019-02-24 02:11:45 GMT 61.438946 -149.522903 1,300 242 118 1408
2019-02-24 02:11:36 GMT 61.440399 -149.513031 1,100 263 119 1216
We lost coverage of the aircraft here for a total of 9 minutes
2019-02-24 02:02:41 GMT 61.398834 -149.539230 0 76 91 -448
2019-02-24 02:02:33 GMT 61.398834 -149.544525 100 111 90 -64
2019-02-24 02:02:24 GMT 61.401443 -149.551880 100 140 89 0
2019-02-24 02:01:42 GMT 61.417831 -149.552673 300 201 96 -448
2019-02-24 02:01:38 GMT 61.418518 -149.551788 300 214 100 -576
2019-02-24 02:01:27 GMT 61.423397 -149.544983 400 215 104 -256
2019-02-24 02:01:16 GMT 61.427444 -149.539124 400 215 109 -320
2019-02-24 02:01:07 GMT 61.431171 -149.533493 500 219 110 -128
2019-02-24 02:00:57 GMT 61.435043 -149.525497 500 233 112 -192
2019-02-24 02:00:45 GMT 61.437515 -149.514801 600 260 112 -704
2019-02-24 02:00:36 GMT 61.437332 -149.503616 700 289 109 576
2019-02-24 02:00:23 GMT 61.433544 -149.492905 500 328 110 256
2019-02-24 01:58:58 GMT 61.401192 -149.533585 0 73 89 -1088
2019-02-24 01:58:47 GMT 61.401981 -149.543457 200 115 93 -256
2019-02-24 01:58:38 GMT 61.404308 -149.549454 200 140 100 -256
2019-02-24 01:58:24 GMT 61.409431 -149.556274 300 166 99 -448
2019-02-24 01:58:15 GMT 61.414261 -149.556107 400 195 101 -576
2019-02-24 01:58:06 GMT 61.417786 -149.553452 500 206 101 -384
2019-02-24 01:57:56 GMT 61.422409 -149.548737 500 207 107 -512
2019-02-24 01:57:45 GMT 61.427166 -149.543655 600 207 114 -192
2019-02-24 01:57:33 GMT 61.433212 -149.540497 700 177 121 0
2019-02-24 01:57:24 GMT 61.438614 -149.542862 700 157 124 -448
2019-02-24 01:57:11 GMT 61.445091 -149.551498 800 132 125 -384
2019-02-24 01:57:01 GMT 61.447815 -149.559433 800 117 123 -128
2019-02-24 01:56:58 GMT 61.449371 -149.566345 800 110 123 -192
2019-02-24 01:56:51 GMT 61.450165 -149.570724 800 109 123 -192
2019-02-24 01:56:41 GMT 61.452538 -149.582718 900 117 125 -192
2019-02-24 01:56:32 GMT 61.455097 -149.590256 900 144 132 256
2019-02-24 01:56:29 GMT 61.456867 -149.592590 900 156 135 0
2019-02-24 01:56:23 GMT 61.461384 -149.593094 1,000 200 139 -1152
2019-02-24 01:56:18 GMT 61.463333 -149.590820 1,000 219 138 -1024
2019-02-24 01:56:09 GMT 61.465759 -149.578766 1,100 276 136 -128
2019-02-24 01:55:58 GMT 61.462639 -149.566956 1,200 328 133 -960
2019-02-24 01:55:47 GMT 61.456635 -149.565125 1,400 18 117 -320
2019-02-24 01:55:42 GMT 61.454262 -149.567673 1,400 38 116 -192
2019-02-24 01:55:37 GMT 61.452259 -149.572250 1,400 61 116 -128
2019-02-24 01:55:32 GMT 61.451283 -149.577530 1,400 81 116 -448
2019-02-24 01:55:25 GMT 61.451248 -149.584152 1,500 99 117 -192
2019-02-24 01:55:21 GMT 61.451935 -149.590454 1,500 110 118 -256
2019-02-24 01:55:14 GMT 61.453564 -149.597672 1,500 120 118 -384
2019-02-24 01:55:04 GMT 61.456310 -149.605820 1,600 131 116 -256
2019-02-24 01:55:00 GMT 61.458115 -149.609848 1,600 133 116 -192
2019-02-24 01:54:54 GMT 61.460266 -149.614655 1,600 134 117 -192
2019-02-24 01:54:40 GMT 61.467808 -149.631851 1,700 132 114 -320
2019-02-24 01:54:32 GMT 61.467911 -149.632217 1,700 132 114 -320
2019-02-24 01:54:22 GMT 61.471672 -149.641006 1,700 131 115 64
2019-02-24 01:54:10 GMT 61.475861 -149.650681 1,700 134 123 -384
2019-02-24 01:53:59 GMT 61.481049 -149.661942 1,800 134 122 -256
2019-02-24 01:53:50 GMT 61.484055 -149.668274 1,800 135 122 -320
2019-02-24 01:53:44 GMT 61.487091 -149.674393 1,900 136 121 -448
2019-02-24 01:53:38 GMT 61.488293 -149.676712 1,900 137 121 -448
2019-02-24 01:53:34 GMT 61.490574 -149.680984 1,900 138 121 -256
2019-02-24 01:53:27 GMT 61.492813 -149.685196 2,000 138 121 -256
2019-02-24 01:53:23 GMT 61.495228 -149.689529 2,000 138 122 -384
2019-02-24 01:53:18 GMT 61.497299 -149.693619 2,000 134 121 -512
2019-02-24 01:53:07 GMT 61.501282 -149.702744 2,100 131 122 -256
2019-02-24 01:53:00 GMT 61.503708 -149.708725 2,100 129 122 -320
2019-02-24 01:52:55 GMT 61.505127 -149.712357 2,100 129 122 -192
2019-02-24 01:52:49 GMT 61.507282 -149.718018 2,100 126 124 -256
2019-02-24 01:52:46 GMT 61.508774 -149.722397 2,200 124 125 -384
2019-02-24 01:52:39 GMT 61.510914 -149.729202 2,200 122 125 -384
2019-02-24 01:52:35 GMT 61.512177 -149.733444 2,300 121 125 -512
2019-02-24 01:52:27 GMT 61.515106 -149.743256 2,300 122 123 -448
2019-02-24 01:52:23 GMT 61.515427 -149.744247 2,400 123 123 -384
2019-02-24 01:52:14 GMT 61.518814 -149.754730 2,400 123 123 -448
2019-02-24 01:52:07 GMT 61.521065 -149.761765 2,500 123 124 -256
2019-02-24 01:52:03 GMT 61.522274 -149.765625 2,500 122 125 -256
2019-02-24 01:51:56 GMT 61.523987 -149.771210 2,500 123 126 -320
2019-02-24 01:51:51 GMT 61.526043 -149.777328 2,500 126 127 -384
2019-02-24 01:51:40 GMT 61.530468 -149.789124 2,600 129 129 -448
2019-02-24 01:51:31 GMT 61.533691 -149.797012 2,700 131 128 -576
2019-02-24 01:51:28 GMT 61.534973 -149.800049 2,700 132 128 -448
2019-02-24 01:51:20 GMT 61.537720 -149.806427 2,800 131 129 -384
2019-02-24 01:51:17 GMT 61.539551 -149.810852 2,800 131 130 -512
2019-02-24 01:51:10 GMT 61.542152 -149.817001 2,900 130 129 -576
2019-02-24 01:50:59 GMT 61.545967 -149.826965 3,000 127 129 -640
2019-02-24 01:50:52 GMT 61.548203 -149.832825 3,100 129 127 -512
2019-02-24 01:50:47 GMT 61.550064 -149.837540 3,100 129 128 -512
2019-02-24 01:50:42 GMT 61.552158 -149.843246 3,200 126 128 -576
2019-02-24 01:50:38 GMT 61.553879 -149.848114 3,200 126 128 -576
2019-02-24 01:50:32 GMT 61.556030 -149.854111 3,300 127 127 -512
2019-02-24 01:50:25 GMT 61.558365 -149.860382 3,300 128 128 -512
2019-02-24 01:50:21 GMT 61.559704 -149.863998 3,300 128 128 -576
2019-02-24 01:50:14 GMT 61.562447 -149.871109 3,400 128 128 -512
2019-02-24 01:50:10 GMT 61.563950 -149.875092 3,500 128 127 -512
2019-02-24 01:50:06 GMT 61.565552 -149.879318 3,500 127 127 -640
2019-02-24 01:49:59 GMT 61.567661 -149.885147 3,600 127 125 -448
2019-02-24 01:49:54 GMT 61.569305 -149.889709 3,600 126 125 -320
2019-02-24 01:49:49 GMT 61.571503 -149.896286 3,600 123 126 -576
2019-02-24 01:49:44 GMT 61.572968 -149.900818 3,700 122 124 -704
2019-02-24 01:49:38 GMT 61.574646 -149.906616 3,800 119 121 -704
2019-02-24 01:49:33 GMT 61.576080 -149.912659 3,800 112 118 -704
2019-02-24 01:49:24 GMT 61.577087 -149.920212 3,900 97 115 -64
2019-02-24 01:49:21 GMT 61.577347 -149.923508 3,900 96 115 0
2019-02-24 01:49:16 GMT 61.577717 -149.930115 3,900 98 116 64
2019-02-24 01:49:11 GMT 61.578510 -149.936417 3,900 113 116 256
2019-02-24 01:49:06 GMT 61.579834 -149.941406 3,800 125 117 0
2019-02-24 01:49:02 GMT 61.581070 -149.944763 3,900 131 117 -128
2019-02-24 01:48:59 GMT 61.581619 -149.946014 3,900 133 117 -192
2019-02-24 01:48:55 GMT 61.583630 -149.950256 3,900 138 115 -384
2019-02-24 01:48:48 GMT 61.586422 -149.955032 3,900 144 112 -320
2019-02-24 01:48:43 GMT 61.588120 -149.957596 3,900 146 111 -192
2019-02-24 01:48:38 GMT 61.590893 -149.961441 4,000 145 111 -64
2019-02-24 01:48:34 GMT 61.592560 -149.963867 4,000 144 111 64
2019-02-24 01:48:30 GMT 61.594116 -149.966324 4,000 144 112 -64
2019-02-24 01:48:23 GMT 61.597084 -149.970505 4,000 148 111 0
2019-02-24 01:48:18 GMT 61.598785 -149.972702 4,000 149 110 320
2019-02-24 01:48:11 GMT 61.602036 -149.977112 3,900 143 109 128
2019-02-24 01:48:08 GMT 61.603409 -149.979462 3,900 138 103 -320
2019-02-24 01:48:00 GMT 61.605652 -149.983978 4,000 132 93 0
2019-02-24 01:47:56 GMT 61.606766 -149.986465 4,000 132 92 128
2019-02-24 01:47:51 GMT 61.608768 -149.991043 3,900 133 95 64
2019-02-24 01:47:46 GMT 61.611191 -149.996338 3,900 134 97 64
2019-02-24 01:47:40 GMT 61.612026 -149.998062 3,900 133 98 0
2019-02-24 01:47:37 GMT 61.613113 -150.000549 3,900 132 99 -64
2019-02-24 01:47:32 GMT 61.614716 -150.004288 3,900 128 100 -128
2019-02-24 01:47:26 GMT 61.616226 -150.008789 4,000 124 101 -128
2019-02-24 01:47:21 GMT 61.617783 -150.013412 4,000 124 100 -128
2019-02-24 01:47:18 GMT 61.618149 -150.014587 4,000 125 100 -192
2019-02-24 01:47:14 GMT 61.619057 -150.017395 4,000 124 99 -256
2019-02-24 01:47:08 GMT 61.621059 -150.023392 4,000 123 99 0
2019-02-24 01:47:04 GMT 61.621758 -150.025833 4,000 119 101 64
2019-02-24 01:46:57 GMT 61.623459 -150.032822 4,000 117 103 -128
2019-02-24 01:46:54 GMT 61.624008 -150.035080 4,000 119 102 -192
2019-02-24 01:46:45 GMT 61.625946 -150.041809 4,000 123 102 0
2019-02-24 01:46:42 GMT 61.626663 -150.044113 4,000 124 102 0
2019-02-24 01:46:35 GMT 61.628815 -150.050293 4,000 127 104 -64
2019-02-24 01:46:32 GMT 61.629715 -150.052795 4,000 127 107 128
2019-02-24 01:46:25 GMT 61.632385 -150.059708 4,000 128 119 -256
2019-02-24 01:46:22 GMT 61.633209 -150.061859 4,000 129 122 -256
2019-02-24 01:46:14 GMT 61.636047 -150.069321 4,100 129 132 -64
2019-02-24 01:46:10 GMT 61.637329 -150.072464 4,100 129 132 -64
2019-02-24 01:46:04 GMT 61.640003 -150.079346 4,100 128 132 -128
2019-02-24 01:46:00 GMT 61.641399 -150.082901 4,100 127 131 -64
2019-02-24 01:45:50 GMT 61.645172 -150.093887 4,100 124 133 320
2019-02-24 01:45:41 GMT 61.648270 -150.103943 4,000 120 137 64
2019-02-24 01:45:38 GMT 61.648895 -150.106094 4,000 119 137 0
2019-02-24 01:45:32 GMT 61.651154 -150.114532 4,100 120 135 -192
2019-02-24 01:45:27 GMT 61.652252 -150.118362 4,100 122 134 -448
2019-02-24 01:45:18 GMT 61.655972 -150.129898 4,200 127 127 -256
2019-02-24 01:45:10 GMT 61.658524 -150.136322 4,200 134 123 64
2019-02-24 01:45:06 GMT 61.659882 -150.138962 4,200 139 122 0
2019-02-24 01:45:00 GMT 61.663284 -150.143768 4,200 155 117 -384
2019-02-24 01:44:55 GMT 61.665051 -150.145157 4,200 164 113 -320
2019-02-24 01:44:49 GMT 61.668777 -150.145828 4,100 188 113 896
2019-02-24 01:44:45 GMT 61.671009 -150.144760 4,100 201 118 704
2019-02-24 01:44:37 GMT 61.674126 -150.140991 4,000 221 121 -64
2019-02-24 01:44:34 GMT 61.675476 -150.138138 4,100 231 120 -192
2019-02-24 01:44:28 GMT 61.677292 -150.130630 4,100 256 119 64
2019-02-24 01:44:24 GMT 61.677525 -150.127060 4,000 268 120 192
2019-02-24 01:44:20 GMT 61.677200 -150.120544 4,000 287 123 448
2019-02-24 01:44:17 GMT 61.676926 -150.118851 4,000 292 123 448
2019-02-24 01:44:14 GMT 61.676083 -150.115051 4,000 302 126 320
2019-02-24 01:44:11 GMT 61.674911 -150.111786 4,000 313 126 64
2019-02-24 01:44:05 GMT 61.673195 -150.108231 4,000 321 127 0
2019-02-24 01:44:00 GMT 61.670078 -150.103043 4,000 322 125 128
2019-02-24 01:43:56 GMT 61.668495 -150.100296 3,900 320 124 384
2019-02-24 01:43:52 GMT 61.666992 -150.097565 3,900 319 124 448
2019-02-24 01:43:49 GMT 61.665237 -150.094193 3,900 316 125 512
2019-02-24 01:43:42 GMT 61.662628 -150.088394 3,800 313 123 256
2019-02-24 01:43:31 GMT 61.658569 -150.079620 3,800 316 116 128
2019-02-24 01:43:22 GMT 61.654953 -150.072266 3,800 318 108 320
2019-02-24 01:43:10 GMT 61.650558 -150.064026 3,800 321 105 -192
2019-02-24 01:43:03 GMT 61.647903 -150.059799 3,800 326 105 -192
2019-02-24 01:42:59 GMT 61.646336 -150.057571 3,900 327 105 -192
2019-02-24 01:42:51 GMT 61.642845 -150.052795 3,900 327 104 -384
2019-02-24 01:42:47 GMT 61.641998 -150.051666 3,900 328 103 -384
2019-02-24 01:42:40 GMT 61.639206 -150.047836 4,000 329 103 -64
2019-02-24 01:42:37 GMT 61.637535 -150.045776 4,000 330 102 -128
2019-02-24 01:42:31 GMT 61.634903 -150.042435 4,000 329 103 -64
2019-02-24 01:42:27 GMT 61.633530 -150.040573 4,000 328 104 -64
2019-02-24 01:42:19 GMT 61.630600 -150.036560 4,000 327 103 -128
2019-02-24 01:42:16 GMT 61.629135 -150.034393 4,000 325 104 0
2019-02-24 01:42:08 GMT 61.626457 -150.030319 4,000 324 106 -64
2019-02-24 01:42:05 GMT 61.625015 -150.027924 4,000 323 107 -64
2019-02-24 01:41:59 GMT 61.621941 -150.023087 4,000 323 107 -256
2019-02-24 01:41:55 GMT 61.620590 -150.020950 4,100 323 107 -448
2019-02-24 01:41:46 GMT 61.617783 -150.016159 4,100 319 103 -512
2019-02-24 01:41:43 GMT 61.616730 -150.014145 4,100 317 104 -448
2019-02-24 01:41:36 GMT 61.614029 -150.008896 4,200 317 104 -384
2019-02-24 01:41:32 GMT 61.612930 -150.006638 4,200 317 106 -256
2019-02-24 01:41:26 GMT 61.610138 -150.001144 4,300 317 111 -192
2019-02-24 01:41:23 GMT 61.609085 -149.998993 4,300 317 113 -448
2019-02-24 01:41:15 GMT 61.606155 -149.993103 4,300 316 117 -128
2019-02-24 01:41:12 GMT 61.604919 -149.990555 4,300 316 121 128
2019-02-24 01:41:05 GMT 61.601807 -149.984177 4,300 316 134 0
2019-02-24 01:41:01 GMT 61.600433 -149.981277 4,300 316 135 64
2019-02-24 01:40:54 GMT 61.596710 -149.973862 4,300 318 135 0
2019-02-24 01:40:51 GMT 61.595535 -149.971619 4,300 319 136 -192
2019-02-24 01:40:43 GMT 61.592148 -149.965408 4,300 321 132 192
2019-02-24 01:40:40 GMT 61.590500 -149.962601 4,300 321 132 192
2019-02-24 01:40:31 GMT 61.586380 -149.955627 4,300 322 132 -128
2019-02-24 01:40:28 GMT 61.585304 -149.953720 4,300 322 131 -64
2019-02-24 01:40:19 GMT 61.580200 -149.945526 4,300 324 130 128
2019-02-24 01:40:11 GMT 61.576229 -149.939774 4,300 328 131 256
2019-02-24 01:40:08 GMT 61.574970 -149.938049 4,200 329 131 320
2019-02-24 01:40:00 GMT 61.568871 -149.932144 4,200 343 138 448
2019-02-24 01:39:47 GMT 61.562309 -149.930725 4,200 13 139 -576
2019-02-24 01:39:36 GMT 61.556721 -149.938354 4,200 55 135 192
2019-02-24 01:39:28 GMT 61.554611 -149.947983 4,200 75 135 128
2019-02-24 01:39:25 GMT 61.554211 -149.951172 4,200 77 135 0
2019-02-24 01:39:17 GMT 61.552998 -149.962463 4,200 77 135 0
2019-02-24 01:39:14 GMT 61.552719 -149.965012 4,200 77 135 0
2019-02-24 01:39:04 GMT 61.551277 -149.978439 4,200 77 134 256
2019-02-24 01:38:56 GMT 61.550159 -149.989212 4,200 77 136 128
2019-02-24 01:38:53 GMT 61.549667 -149.993683 4,200 77 136 -64
2019-02-24 01:38:44 GMT 61.548660 -150.002609 4,200 76 134 -64
2019-02-24 01:38:41 GMT 61.548111 -150.007523 4,200 77 134 -64
2019-02-24 01:38:32 GMT 61.546806 -150.019333 4,200 76 132 0
2019-02-24 01:38:29 GMT 61.546574 -150.021362 4,200 77 132 0
2019-02-24 01:38:24 GMT 61.545776 -150.028900 4,200 78 130 128
2019-02-24 01:38:19 GMT 61.545132 -150.035706 4,200 78 130 192
2019-02-24 01:38:13 GMT 61.544525 -150.042114 4,100 79 131 384
2019-02-24 01:38:10 GMT 61.544174 -150.045776 4,100 79 132 320
2019-02-24 01:38:07 GMT 61.543854 -150.049500 4,100 79 132 256
2019-02-24 01:38:03 GMT 61.543270 -150.055649 4,100 79 132 192
2019-02-24 01:38:00 GMT 61.542938 -150.059113 4,100 79 132 192
2019-02-24 01:37:57 GMT 61.542568 -150.063278 4,100 78 132 128
2019-02-24 01:37:52 GMT 61.541977 -150.069122 4,100 77 132 64
2019-02-24 01:37:46 GMT 61.540989 -150.078537 4,000 76 131 128
2019-02-24 01:37:40 GMT 61.540478 -150.083008 4,000 76 131 128
2019-02-24 01:37:37 GMT 61.540146 -150.086090 4,000 76 131 64
2019-02-24 01:37:34 GMT 61.539505 -150.091690 4,000 76 130 0
2019-02-24 01:37:28 GMT 61.538681 -150.098846 4,000 77 129 128
2019-02-24 01:37:23 GMT 61.538040 -150.104828 4,000 77 129 320
2019-02-24 01:37:20 GMT 61.537636 -150.108444 4,000 76 129 256
2019-02-24 01:37:17 GMT 61.537262 -150.111694 4,000 75 130 192
2019-02-24 01:37:12 GMT 61.536472 -150.117905 4,000 74 129 0
2019-02-24 01:37:06 GMT 61.535522 -150.124741 4,000 72 127 -128
2019-02-24 01:37:01 GMT 61.534424 -150.132202 4,000 72 124 -64
2019-02-24 01:36:58 GMT 61.534100 -150.134171 4,000 72 123 64
2019-02-24 01:36:55 GMT 61.533539 -150.137833 4,000 72 123 192
2019-02-24 01:36:48 GMT 61.532272 -150.145828 3,900 70 123 0
2019-02-24 01:36:44 GMT 61.531677 -150.149033 3,900 67 121 -128
2019-02-24 01:36:37 GMT 61.529892 -150.157211 4,000 63 117 0
2019-02-24 01:36:34 GMT 61.529205 -150.160156 3,900 63 114 256
2019-02-24 01:36:27 GMT 61.527439 -150.168152 3,900 67 114 512
2019-02-24 01:36:24 GMT 61.526882 -150.171005 3,900 68 115 512
2019-02-24 01:36:16 GMT 61.525208 -150.179245 3,800 66 112 128
2019-02-24 01:36:13 GMT 61.524555 -150.182388 3,800 67 110 128
2019-02-24 01:36:05 GMT 61.523163 -150.189575 3,800 67 108 0
2019-02-24 01:36:02 GMT 61.522659 -150.192230 3,800 68 107 -64
2019-02-24 01:35:52 GMT 61.520828 -150.202820 3,800 73 106 -64
2019-02-24 01:35:44 GMT 61.519760 -150.211594 3,800 79 103 -192
2019-02-24 01:35:41 GMT 61.519592 -150.213516 3,800 82 102 -64
2019-02-24 01:35:29 GMT 61.519947 -150.223999 3,800 106 99 0
2019-02-24 01:35:22 GMT 61.521652 -150.231171 3,800 127 97 -64
2019-02-24 01:35:09 GMT 61.526138 -150.237946 3,800 160 96 512
2019-02-24 01:35:00 GMT 61.529938 -150.239120 3,800 193 100 -256
2019-02-24 01:34:57 GMT 61.531036 -150.238632 3,800 193 100 -256
2019-02-24 01:34:50 GMT 61.534424 -150.235001 3,800 214 97 -192
2019-02-24 01:34:47 GMT 61.535156 -150.234009 3,800 214 97 -192
2019-02-24 01:34:37 GMT 61.539127 -150.228577 3,800 213 94 -192
2019-02-24 01:34:26 GMT 61.542988 -150.223190 3,900 215 79 -768
2019-02-24 01:34:18 GMT 61.545410 -150.219833 4,000 215 64 -320
2019-02-24 01:34:15 GMT 61.545967 -150.218918 4,000 215 60 832
2019-02-24 01:34:05 GMT 61.548809 -150.215042 3,700 212 78 1600
2019-02-24 01:33:56 GMT 61.551510 -150.211594 3,500 213 86 768
2019-02-24 01:33:53 GMT 61.552532 -150.210159 3,500 214 85 704
2019-02-24 01:33:46 GMT 61.554932 -150.207047 3,500 211 71 -128
2019-02-24 01:33:43 GMT 61.556076 -150.205673 3,400 211 69 1280
2019-02-24 01:33:35 GMT 61.557953 -150.203308 3,300 212 77 1600
2019-02-24 01:33:31 GMT 61.559330 -150.201614 3,200 212 83 1472
2019-02-24 01:33:24 GMT 61.561565 -150.198776 3,000 213 86 768
2019-02-24 01:33:20 GMT 61.563080 -150.196838 3,000 212 84 -64
2019-02-24 01:33:14 GMT 61.565048 -150.194183 3,000 213 84 64
2019-02-24 01:33:09 GMT 61.566730 -150.192062 3,000 213 86 64
2019-02-24 01:33:01 GMT 61.570782 -150.186569 3,000 213 88 64
2019-02-24 01:32:52 GMT 61.572365 -150.184631 3,000 211 89 192
2019-02-24 01:32:47 GMT 61.574570 -150.181931 2,900 211 93 512
2019-02-24 01:32:42 GMT 61.576309 -150.179764 2,900 210 96 -64
2019-02-24 01:32:39 GMT 61.577225 -150.178589 2,900 210 96 -128
2019-02-24 01:32:36 GMT 61.579147 -150.176239 2,900 211 95 -192
2019-02-24 01:32:31 GMT 61.580509 -150.174667 3,000 209 95 -128
2019-02-24 01:32:27 GMT 61.581905 -150.173141 3,000 209 95 -64
2019-02-24 01:32:24 GMT 61.583405 -150.171341 3,000 209 95 64
2019-02-24 01:32:20 GMT 61.586002 -150.168457 3,000 209 97 0
2019-02-24 01:32:10 GMT 61.588806 -150.165344 2,900 209 98 128
2019-02-24 01:32:06 GMT 61.589912 -150.164078 2,900 209 99 128
2019-02-24 01:32:02 GMT 61.592148 -150.161530 2,900 209 102 384
2019-02-24 01:31:57 GMT 61.594383 -150.159103 2,900 209 105 64
2019-02-24 01:31:50 GMT 61.597084 -150.156052 2,900 208 106 -256
2019-02-24 01:31:46 GMT 61.598923 -150.154068 2,900 207 104 -256
2019-02-24 01:31:38 GMT 61.602482 -150.150452 2,900 207 103 192
2019-02-24 01:31:34 GMT 61.603455 -150.149368 2,900 208 105 256
2019-02-24 01:31:28 GMT 61.606396 -150.146179 2,900 208 107 -256
2019-02-24 01:31:25 GMT 61.608215 -150.144165 2,900 209 106 -256
2019-02-24 01:31:18 GMT 61.611374 -150.140686 3,000 207 104 -192
2019-02-24 01:31:14 GMT 61.612610 -150.139359 3,000 207 104 -64
2019-02-24 01:31:06 GMT 61.616180 -150.135818 3,000 205 105 192
2019-02-24 01:31:02 GMT 61.617752 -150.134277 3,000 205 106 128
2019-02-24 01:30:53 GMT 61.622269 -150.130203 2,900 201 111 128
2019-02-24 01:30:42 GMT 61.627533 -150.126801 3,000 196 108 -256
2019-02-24 01:30:30 GMT 61.633068 -150.125839 3,000 168 106 -128
2019-02-24 01:30:20 GMT 61.637329 -150.130722 3,100 132 104 -256
2019-02-24 01:30:17 GMT 61.638420 -150.133469 3,100 121 104 -256
2019-02-24 01:30:10 GMT 61.639755 -150.140244 3,100 102 105 0
2019-02-24 01:30:06 GMT 61.640099 -150.144547 3,100 99 106 -64
2019-02-24 01:29:59 GMT 61.640579 -150.150742 3,100 99 106 -128
2019-02-24 01:29:55 GMT 61.640717 -150.155548 3,100 86 107 -64
2019-02-24 01:29:51 GMT 61.640514 -150.159607 3,100 77 108 -64
2019-02-24 01:29:47 GMT 61.640167 -150.162598 3,100 69 109 -64
2019-02-24 01:29:44 GMT 61.639400 -150.166214 3,100 61 110 -128
2019-02-24 01:29:39 GMT 61.637955 -150.170898 3,100 51 111 -192
2019-02-24 01:29:32 GMT 61.635674 -150.175369 3,200 35 112 -256
2019-02-24 01:29:29 GMT 61.634090 -150.177505 3,200 27 113 -192
2019-02-24 01:29:26 GMT 61.632980 -150.178589 3,200 23 113 -128
2019-02-24 01:29:23 GMT 61.630646 -150.180359 3,200 14 115 192
2019-02-24 01:29:17 GMT 61.627441 -150.181442 3,200 357 121 -192
2019-02-24 01:29:12 GMT 61.624878 -150.181244 3,200 355 121 -256
2019-02-24 01:29:06 GMT 61.621628 -150.180557 3,200 354 121 -192
2019-02-24 01:29:01 GMT 61.618683 -150.179855 3,200 353 122 0
2019-02-24 01:28:56 GMT 61.616501 -150.179184 3,200 350 123 -192
2019-02-24 01:28:49 GMT 61.612400 -150.177612 3,200 350 124 -256
2019-02-24 01:28:43 GMT 61.609467 -150.176498 3,200 351 124 64
2019-02-24 01:28:40 GMT 61.606705 -150.175644 3,200 352 120 256
2019-02-24 01:28:36 GMT 61.604599 -150.175064 3,200 353 115 576
2019-02-24 01:28:27 GMT 61.600388 -150.173782 3,100 354 106 448
2019-02-24 01:28:21 GMT 61.597782 -150.173141 3,100 354 98 -64
2019-02-24 01:28:16 GMT 61.595261 -150.172409 3,100 350 85 -768
2019-02-24 01:28:12 GMT 61.594025 -150.171921 3,100 347 73 -960
2019-02-24 01:28:04 GMT 61.591125 -150.170395 3,100 346 81 0
2019-02-24 01:28:01 GMT 61.589813 -150.169662 3,200 345 86 -576
2019-02-24 01:27:52 GMT 61.587029 -150.167953 3,200 343 82 -512
2019-02-24 01:27:44 GMT 61.583725 -150.165543 3,200 342 81 128
2019-02-24 01:27:40 GMT 61.582558 -150.164795 3,200 342 82 128
2019-02-24 01:27:33 GMT 61.579605 -150.162796 3,200 343 83 192
2019-02-24 01:27:30 GMT 61.578693 -150.162155 3,200 343 85 64
2019-02-24 01:27:21 GMT 61.575527 -150.160019 3,200 341 85 -64
2019-02-24 01:27:11 GMT 61.571411 -150.157013 3,200 340 89 -64
2019-02-24 01:26:59 GMT 61.567200 -150.153671 3,200 339 95 0
2019-02-24 01:26:49 GMT 61.562729 -150.149841 3,200 339 101 -192
2019-02-24 01:26:44 GMT 61.560585 -150.148117 3,300 340 101 -256
2019-02-24 01:26:39 GMT 61.557884 -150.145981 3,300 340 102 -128
2019-02-24 01:26:36 GMT 61.557129 -150.145432 3,300 340 102 -64
2019-02-24 01:26:26 GMT 61.552322 -150.141312 3,300 339 107 448
2019-02-24 01:26:17 GMT 61.548111 -150.137985 3,300 340 112 -128
2019-02-24 01:26:06 GMT 61.542389 -150.133377 3,200 338 116 960
2019-02-24 01:25:54 GMT 61.536392 -150.128464 3,100 340 122 320
2019-02-24 01:25:43 GMT 61.530624 -150.124252 3,100 343 123 320
2019-02-24 01:25:35 GMT 61.526276 -150.121399 3,100 345 123 384
2019-02-24 01:25:32 GMT 61.524811 -150.120621 3,000 348 124 320
2019-02-24 01:25:22 GMT 61.519154 -150.123703 3,100 50 113 128
2019-02-24 01:25:14 GMT 61.518356 -150.131607 3,000 111 118 960
2019-02-24 01:25:11 GMT 61.519016 -150.134171 2,900 131 121 640
2019-02-24 01:25:03 GMT 61.523254 -150.136902 3,000 202 121 -832
2019-02-24 01:25:00 GMT 61.524509 -150.135605 3,000 218 121 -704
2019-02-24 01:24:49 GMT 61.525162 -150.122681 3,000 311 129 -64
2019-02-24 01:24:16 GMT 61.519409 -150.099243 3,000 177 127 -384
2019-02-24 01:24:05 GMT 61.523026 -150.107864 3,100 83 127 -128
2019-02-24 01:23:59 GMT 61.521297 -150.114944 3,100 39 130 -320
2019-02-24 01:23:53 GMT 61.518860 -150.117584 3,100 12 132 -128
2019-02-24 01:23:46 GMT 61.514099 -150.116989 3,100 343 133 64
2019-02-24 01:23:42 GMT 61.512360 -150.115723 3,100 341 132 0
2019-02-24 01:23:37 GMT 61.509148 -150.113327 3,100 341 132 0
2019-02-24 01:23:33 GMT 61.506226 -150.111099 3,100 339 133 64
2019-02-24 01:23:25 GMT 61.501648 -150.107178 3,100 338 132 -256
2019-02-24 01:23:22 GMT 61.499371 -150.105179 3,100 337 131 64
2019-02-24 01:23:14 GMT 61.495926 -150.102036 3,100 336 133 128
2019-02-24 01:23:10 GMT 61.493271 -150.099426 3,100 336 133 -128
2019-02-24 01:23:03 GMT 61.489746 -150.096298 3,100 339 131 -192
2019-02-24 01:22:59 GMT 61.487358 -150.094299 3,100 339 131 256
2019-02-24 01:22:53 GMT 61.483887 -150.090897 3,100 329 131 64
2019-02-24 01:22:47 GMT 61.481598 -150.087952 3,100 332 131 64
2019-02-24 01:22:42 GMT 61.477955 -150.084839 3,100 345 132 64
2019-02-24 01:22:37 GMT 61.475349 -150.083618 3,100 350 132 0
2019-02-24 01:22:33 GMT 61.473068 -150.082809 3,100 350 132 128
2019-02-24 01:22:30 GMT 61.471664 -150.082260 3,100 350 132 64
2019-02-24 01:22:27 GMT 61.468647 -150.081070 3,100 350 132 128
2019-02-24 01:22:21 GMT 61.465248 -150.079849 3,100 352 131 -64
2019-02-24 01:22:15 GMT 61.461662 -150.078735 3,100 351 131 320
2019-02-24 01:22:10 GMT 61.458939 -150.077759 3,100 351 133 192
2019-02-24 01:22:04 GMT 61.454773 -150.076279 3,000 351 134 128
2019-02-24 01:22:01 GMT 61.453812 -150.075897 3,000 351 135 64
2019-02-24 01:21:58 GMT 61.452209 -150.075302 3,000 351 135 0
2019-02-24 01:21:53 GMT 61.445709 -150.073242 3,100 352 132 -320
2019-02-24 01:21:49 GMT 61.445709 -150.073242 3,100 352 131 -128
2019-02-24 01:21:38 GMT 61.439392 -150.071274 3,100 352 130 128
2019-02-24 01:21:29 GMT 61.434265 -150.069717 3,000 352 131 128
2019-02-24 01:21:26 GMT 61.432205 -150.069122 3,000 352 130 64
2019-02-24 01:21:19 GMT 61.428177 -150.067749 3,000 351 130 128
2019-02-24 01:21:15 GMT 61.425751 -150.066864 3,000 349 130 128
2019-02-24 01:21:06 GMT 61.420555 -150.064499 3,000 348 131 64
2019-02-24 01:21:03 GMT 61.418694 -150.063583 3,000 349 130 -64
2019-02-24 01:20:55 GMT 61.414215 -150.061661 3,000 350 128 128
2019-02-24 01:20:52 GMT 61.412476 -150.060974 3,000 350 127 -64
2019-02-24 01:20:45 GMT 61.407944 -150.059219 3,000 350 122 -320
2019-02-24 01:20:42 GMT 61.406296 -150.058624 3,000 351 118 128
2019-02-24 01:20:34 GMT 61.402264 -150.057373 3,000 353 117 640
2019-02-24 01:20:31 GMT 61.400391 -150.056854 2,900 353 117 512
2019-02-24 01:20:23 GMT 61.396500 -150.055786 2,900 353 117 448
2019-02-24 01:20:20 GMT 61.394627 -150.055237 2,800 353 115 448
2019-02-24 01:20:13 GMT 61.390915 -150.054306 2,800 353 114 512
2019-02-24 01:20:09 GMT 61.388443 -150.053528 2,700 353 115 576
2019-02-24 01:20:02 GMT 61.385330 -150.052643 2,700 352 115 640
2019-02-24 01:19:57 GMT 61.382618 -150.051773 2,600 352 116 704
2019-02-24 01:19:51 GMT 61.379608 -150.050781 2,600 352 117 512
2019-02-24 01:19:45 GMT 61.376816 -150.049896 2,500 352 117 512
2019-02-24 01:19:41 GMT 61.373863 -150.049133 2,500 353 116 512
2019-02-24 01:19:35 GMT 61.371048 -150.048325 2,400 353 117 448
2019-02-24 01:19:30 GMT 61.368210 -150.047440 2,400 352 116 384
2019-02-24 01:19:25 GMT 61.365326 -150.046463 2,300 353 115 576
2019-02-24 01:19:18 GMT 61.362488 -150.045685 2,300 353 115 704
2019-02-24 01:19:14 GMT 61.359146 -150.044891 2,200 354 118 704
2019-02-24 01:19:09 GMT 61.356903 -150.044312 2,100 355 118 384
2019-02-24 01:19:02 GMT 61.353104 -150.043533 2,100 355 118 384
2019-02-24 01:18:58 GMT 61.350952 -150.043121 2,100 356 117 192
2019-02-24 01:18:51 GMT 61.347282 -150.042526 2,000 356 114 256
2019-02-24 01:18:47 GMT 61.345375 -150.042313 2,000 357 114 384
2019-02-24 01:18:39 GMT 61.340954 -150.041916 2,000 357 113 128
2019-02-24 01:18:36 GMT 61.339695 -150.041702 2,000 356 112 192
2019-02-24 01:18:26 GMT 61.334297 -150.041092 1,900 358 113 128
2019-02-24 01:18:15 GMT 61.328663 -150.040482 1,900 357 113 256
2019-02-24 01:18:05 GMT 61.323078 -150.039780 1,900 357 116 256
2019-02-24 01:18:02 GMT 61.319916 -150.039307 1,800 356 119 448
2019-02-24 01:17:54 GMT 61.317123 -150.038818 1,800 354 122 384
2019-02-24 01:17:47 GMT 61.313999 -150.037949 1,800 351 126 0
2019-02-24 01:17:43 GMT 61.311111 -150.036728 1,800 345 127 -256
2019-02-24 01:17:37 GMT 61.307808 -150.034286 1,800 336 126 -128
2019-02-24 01:17:33 GMT 61.305481 -150.031845 1,800 331 127 -192
2019-02-24 01:17:24 GMT 61.300827 -150.026550 1,900 333 124 -256
2019-02-24 01:17:14 GMT 61.296028 -150.021164 1,900 331 124 -128
2019-02-24 01:17:11 GMT 61.294601 -150.019485 1,900 330 123 64
2019-02-24 01:17:04 GMT 61.289383 -150.013504 1,900 333 125 0
2019-02-24 01:17:01 GMT 61.289383 -150.013504 1,900 333 125 0
2019-02-24 01:16:52 GMT 61.284439 -150.008011 1,900 333 125 0
2019-02-24 01:16:49 GMT 61.283752 -150.007233 1,900 333 125 0
2019-02-24 01:16:39 GMT 61.278259 -150.001633 1,900 336 127 -64
2019-02-24 01:16:29 GMT 61.272400 -149.996536 1,900 338 128 0
2019-02-24 01:16:17 GMT 61.266563 -149.991455 1,900 337 131 -192
2019-02-24 01:16:08 GMT 61.260590 -149.985550 2,000 334 132 -192
2019-02-24 01:15:57 GMT 61.254959 -149.979370 2,000 332 131 -320
2019-02-24 01:15:45 GMT 61.249054 -149.972900 2,000 333 132 192
2019-02-24 01:15:40 GMT 61.246216 -149.969849 2,000 334 131 0
2019-02-24 01:15:36 GMT 61.243473 -149.967041 2,000 334 130 -64
2019-02-24 01:15:29 GMT 61.240585 -149.964096 2,000 335 127 384
2019-02-24 01:15:25 GMT 61.237793 -149.961121 2,000 334 127 128
2019-02-24 01:15:20 GMT 61.235001 -149.958191 2,000 333 127 0
2019-02-24 01:15:13 GMT 61.232162 -149.955139 2,000 333 123 -64
2019-02-24 01:15:09 GMT 61.229370 -149.952103 2,000 333 119 128
2019-02-24 01:15:04 GMT 61.227085 -149.949646 1,900 332 118 384
2019-02-24 01:14:58 GMT 61.224289 -149.946304 1,900 329 117 192
2019-02-24 01:14:53 GMT 61.222046 -149.943375 1,900 325 115 320
2019-02-24 01:14:46 GMT 61.219685 -149.939468 1,900 318 113 320
2019-02-24 01:14:42 GMT 61.217834 -149.935516 1,800 310 112 256
2019-02-24 01:14:36 GMT 61.215912 -149.930008 1,800 302 112 896
2019-02-24 01:14:32 GMT 61.214890 -149.926041 1,700 295 109 704
2019-02-24 01:14:25 GMT 61.213852 -149.919144 1,600 278 101 640
2019-02-24 01:14:20 GMT 61.213715 -149.915512 1,600 272 99 768
2019-02-24 01:14:12 GMT 61.214100 -149.907120 1,400 264 95 1472
2019-02-24 01:14:09 GMT 61.214172 -149.905792 1,300 264 95 1472
2019-02-24 01:14:00 GMT 61.214676 -149.896088 1,000 263 96 1344
2019-02-24 01:13:51 GMT 61.215263 -149.886780 800 265 99 1856
2019-02-24 01:13:48 GMT 61.215271 -149.886475 700 265 100 1728
2019-02-24 01:13:38 GMT 61.215637 -149.875977 500 267 101 1088
2019-02-24 01:13:28 GMT 61.215775 -149.865875 300 270 96 1216
2019-02-24 01:13:09 GMT 61.215866 -149.849106 -200 270 87 1408
2019-02-24 01:13:01 GMT 61.215912 -149.843307 -300 270 86 832
2019-02-24 01:12:55 GMT 61.215912 -149.837952 -400 270 76 192
2019-02-24 01:12:44 GMT 61.215900 -149.832764 0 270 25 0
2019-02-24 01:12:35 GMT 61.215855 -149.831390 0 303 10 0
2019-02-24 01:12:24 GMT 61.215569 -149.831070 0 0 5 0
2019-02-24 01:12:12 GMT 61.215408 -149.831100 0 11 0 0
2019-02-24 01:11:59 GMT 61.215397 -149.831100 0 11 0 0
2019-02-24 01:11:48 GMT 61.215389 -149.831116 0 11 0 0
2019-02-24 01:10:44 GMT 61.215397 -149.831100 0 11 0 0
2019-02-24 01:10:14 GMT 61.215389 -149.831116 0 11 0 0
2019-02-24 01:09:54 GMT 61.215397 -149.831100 0 11 0 0
2019-02-24 01:09:44 GMT 61.215389 -149.831116 0 11 0 0
2019-02-24 01:09:30 GMT 61.215378 -149.831116 0 11 0 0
2019-02-24 01:09:19 GMT 61.215385 -149.831100 0 11 0 0
2019-02-24 01:09:09 GMT 61.215374 -149.831100 0 11 0 0
2019-02-24 01:08:49 GMT 61.215378 -149.831116 0 11 0 0
2019-02-24 01:08:39 GMT 61.215385 -149.831100 0 11 0 0
2019-02-24 01:08:14 GMT 61.215385 -149.831131 0 11 0 0
2019-02-24 01:08:05 GMT 61.215389 -149.831116 0 11 0 0
2019-02-24 01:07:55 GMT 61.215385 -149.831131 0 11 0 0
2019-02-24 01:07:36 GMT 61.215378 -149.831116 0 11 0 0
2019-02-24 01:07:26 GMT 61.215385 -149.831131 0 11 0 0
2019-02-24 01:07:14 GMT 61.215389 -149.831131 0 11 0 0
2019-02-24 01:07:05 GMT 61.215378 -149.831116 0 11 0 0
2019-02-24 01:06:54 GMT 61.215389 -149.831131 0 11 0 0
2019-02-24 01:06:42 GMT 61.215366 -149.831131 0 16 5 0
2019-02-24 01:06:32 GMT 61.215179 -149.831879 0 87 11 0
2019-02-24 01:06:21 GMT 61.215179 -149.833023 0 92 14 0
2019-02-24 01:06:10 GMT 61.215191 -149.834244 0 90 13 0
2019-02-24 01:06:01 GMT 61.215191 -149.835510 0 90 14 0
2019-02-24 01:05:48 GMT 61.215168 -149.836990 0 90 13 0
2019-02-24 01:05:39 GMT 61.215168 -149.838211 0 87 13 0
2019-02-24 01:05:28 GMT 61.215168 -149.839554 0 90 13 0
2019-02-24 01:05:17 GMT 61.215157 -149.840698 0 90 14 0
2019-02-24 01:05:07 GMT 61.215134 -149.842133 -400 90 12 0
2019-02-24 01:04:57 GMT 61.215088 -149.843018 -400 36 5 0
2019-02-24 01:04:46 GMT 61.214905 -149.843124 -400 0 0 0
2019-02-24 01:03:53 GMT 61.214935 -149.843033 -400 0 0 0
2019-02-24 01:03:31 GMT 61.214951 -149.843018 0 0 0 0
2019-02-24 01:03:21 GMT 61.214935 -149.843033 0 0 0 0
2019-02-24 01:03:09 GMT 61.214951 -149.843018 0 0 0 0

Making use of Plane Finder data

You are free to use the raw flight data, aircraft information and images provided in this report for your own purposes provided the data is correctly attributed to Plane Finder. We ask that you please credit Plane Finder and link to planefinder.net in close proximity to the content.

Optionally one of the following logos (no smaller then 150x24px) can be used and must link to planefinder.net

Embedding the Plane Finder map

You are welcome to embed the Plane Finder playback map on your website to offer visitors a more interactive experience. We suggest using the following HTML code:

<iframe src="//planefinder.net/data/report/N3974X-N3974X-7700-squawk-2019-02-24/map" width="800" height="600" seamless="seamless"></iframe>

Where our data comes from

Plane Finder has a global network of data feeds and antenna radars that receive data broadcast directly from aircraft. The primary technologies used are ADS-B and MLAT. We also show feeds from the FAA and a FLARM glider feed.

Click here to find out more about the Plane Finder network.

How we collect our data